Time;durP1;ratioP1;P1;durP2;ratioP2;P2;SDS_P1;SDS_P2;PMS_P1;PMS_P2;Temp;Humidity;BMP_temperature;BMP_pressure;BME280_temperature;BME280_humidity;BME280_pressure;Samples;Min_cycle;Max_cycle;Signal;HPM_P1;HPM_P2
2024/02/14 00:01:09;;;;;;;7.68;4.30;;;;;;;9.46;72.73;99654.63;4973822;28;20152;-77
2024/02/14 00:03:37;;;;;;;6.00;3.97;;;;;;;9.45;72.77;99653.78;4974106;28;20046;-76
2024/02/14 00:06:05;;;;;;;7.63;4.43;;;;;;;9.46;72.65;99655.47;4973489;28;20554;-77
2024/02/14 00:08:32;;;;;;;9.63;4.55;;;;;;;9.45;72.63;99656.41;4972858;28;20051;-77
2024/02/14 00:11:00;;;;;;;8.50;4.47;;;;;;;9.45;72.98;99643.28;4973867;28;20109;-77
2024/02/14 00:13:27;;;;;;;8.27;4.78;;;;;;;9.46;72.34;99650.22;4973802;28;20055;-75
2024/02/14 00:15:53;;;;;;;5.78;4.03;;;;;;;9.45;72.60;99643.28;4973435;28;20058;-77
2024/02/14 00:18:22;;;;;;;6.68;4.18;;;;;;;9.47;73.12;99648.44;4972454;28;20121;-76
2024/02/14 00:20:49;;;;;;;5.90;3.90;;;;;;;9.45;72.62;99643.28;4972563;28;20057;-76
2024/02/14 00:23:15;;;;;;;5.70;4.10;;;;;;;9.45;72.66;99651.16;4973519;28;20518;-76
2024/02/14 00:25:42;;;;;;;9.57;4.40;;;;;;;9.42;72.66;99651.31;4973552;28;20117;-77
2024/02/14 00:28:08;;;;;;;9.38;4.20;;;;;;;9.38;72.90;99637.50;4973330;28;20059;-77
2024/02/14 00:30:35;;;;;;;8.20;4.25;;;;;;;9.36;72.83;99628.00;4971853;28;20058;-76
2024/02/14 00:33:02;;;;;;;9.27;4.32;;;;;;;9.32;72.83;99636.97;4973097;28;20513;-75
2024/02/14 00:35:29;;;;;;;5.50;4.20;;;;;;;9.29;73.03;99631.88;4973590;28;20051;-76
2024/02/14 00:37:55;;;;;;;6.50;4.28;;;;;;;9.24;73.31;99627.72;4971859;28;20053;-76
2024/02/14 00:40:22;;;;;;;7.43;4.35;;;;;;;9.20;73.30;99620.94;4972817;28;20047;-75
2024/02/14 00:42:49;;;;;;;8.95;4.35;;;;;;;9.17;73.29;99623.75;4973003;28;20050;-79
2024/02/14 00:45:15;;;;;;;7.03;4.13;;;;;;;9.15;73.66;99617.72;4973153;28;20054;-76
2024/02/14 00:47:42;;;;;;;7.97;4.90;;;;;;;9.13;73.87;99617.81;4971754;28;20480;-76
2024/02/14 00:50:09;;;;;;;9.07;4.78;;;;;;;9.12;74.17;99620.50;4973309;28;20138;-76
2024/02/14 00:52:36;;;;;;;7.15;4.13;;;;;;;9.10;74.46;99619.75;4971825;28;20563;-78
2024/02/14 00:55:03;;;;;;;10.68;5.00;;;;;;;9.08;74.31;99609.31;4971939;28;20051;-76
2024/02/14 00:57:30;;;;;;;7.80;4.93;;;;;;;9.07;74.73;99602.38;4972962;28;20466;-76
2024/02/14 00:59:59;;;;;;;6.97;5.15;;;;;;;9.05;74.90;99613.91;4971808;28;20058;-76
2024/02/14 01:02:26;;;;;;;9.00;5.22;;;;;;;9.01;75.23;99592.19;4973045;28;20059;-76
2024/02/14 01:04:53;;;;;;;7.25;5.25;;;;;;;8.98;75.72;99603.72;4972091;28;20142;-76
2024/02/14 01:07:20;;;;;;;7.30;5.30;;;;;;;8.95;75.76;99588.13;4971566;28;20086;-75
2024/02/14 01:09:47;;;;;;;8.35;5.40;;;;;;;8.91;76.42;99591.84;4973026;28;20062;-77
2024/02/14 01:12:13;;;;;;;10.20;5.30;;;;;;;8.91;76.32;99593.63;4972671;28;20460;-75
2024/02/14 01:14:40;;;;;;;7.05;4.93;;;;;;;8.88;76.65;99584.13;4971297;28;20128;-75
2024/02/14 01:19:48;;;;;;;9.55;5.57;;;;;;;8.84;77.25;99583.47;5054891;23;20057;-80
2024/02/14 01:22:18;;;;;;;9.23;4.93;;;;;;;8.84;77.36;99585.22;4972097;28;20050;-83
2024/02/14 01:24:44;;;;;;;13.05;5.85;;;;;;;8.81;77.90;99580.97;4972090;28;20047;-81
2024/02/14 01:27:11;;;;;;;8.10;5.32;;;;;;;8.81;78.25;99577.50;4973136;28;20137;-84
2024/02/14 01:29:38;;;;;;;8.82;5.32;;;;;;;8.81;78.25;99575.72;4973257;28;20070;-82
2024/02/14 01:32:04;;;;;;;8.82;5.70;;;;;;;8.82;78.35;99550.34;4973245;28;20113;-81
2024/02/14 01:34:31;;;;;;;7.93;5.40;;;;;;;8.83;78.70;99559.91;4973024;28;20057;-79
2024/02/14 01:36:58;;;;;;;9.45;5.80;;;;;;;8.82;78.81;99566.94;4972906;28;20153;-83
2024/02/14 01:39:24;;;;;;;9.02;5.75;;;;;;;8.84;79.21;99569.47;4972902;28;20110;-82
2024/02/14 01:41:50;;;;;;;8.63;6.20;;;;;;;8.85;79.13;99563.28;4973057;28;20141;-80
2024/02/14 01:44:18;;;;;;;8.98;5.35;;;;;;;8.88;79.40;99555.25;4972944;28;20054;-80
2024/02/14 01:46:44;;;;;;;9.60;5.93;;;;;;;8.90;79.46;99573.56;4972105;28;20109;-80
2024/02/14 01:49:12;;;;;;;7.18;5.55;;;;;;;8.88;79.34;99560.50;4972536;28;20137;-80
2024/02/14 01:51:42;;;;;;;9.15;5.32;;;;;;;8.91;79.83;99565.59;4972366;28;20489;-83
2024/02/14 01:54:10;;;;;;;9.80;5.63;;;;;;;8.91;79.96;99567.38;4972676;28;20043;-80
2024/02/14 01:56:37;;;;;;;8.27;5.95;;;;;;;8.92;80.12;99567.28;4972250;28;20698;-80
2024/02/14 01:59:05;;;;;;;6.70;5.18;;;;;;;8.93;80.50;99547.97;4972393;28;20054;-80
2024/02/14 02:01:33;;;;;;;8.88;6.32;;;;;;;8.95;80.42;99567.13;4972239;28;20055;-81
2024/02/14 02:04:00;;;;;;;8.20;6.05;;;;;;;8.96;80.78;99542.56;4972392;28;20065;-81
2024/02/14 02:06:28;;;;;;;7.85;5.65;;;;;;;8.99;80.59;99533.69;4972153;28;20116;-80
2024/02/14 02:08:55;;;;;;;11.77;6.68;;;;;;;8.98;80.85;99535.44;4972619;28;20054;-82
2024/02/14 02:11:22;;;;;;;12.27;6.43;;;;;;;9.01;80.68;99529.19;4972528;28;20102;-80
2024/02/14 02:13:48;;;;;;;11.52;5.80;;;;;;;9.02;80.84;99525.66;4971528;28;20518;-81
2024/02/14 02:16:15;;;;;;;8.18;5.70;;;;;;;9.04;80.92;99522.94;4970917;28;20073;-82
2024/02/14 02:18:42;;;;;;;7.50;6.03;;;;;;;9.04;81.00;99522.94;4972163;28;20046;-80
2024/02/14 02:21:09;;;;;;;7.93;6.10;;;;;;;9.07;80.93;99518.34;4972717;28;20054;-80
2024/02/14 02:23:35;;;;;;;7.88;5.78;;;;;;;9.09;80.95;99516.47;4972421;28;20412;-81
2024/02/14 02:26:02;;;;;;;9.35;6.03;;;;;;;9.11;80.85;99530.41;4972008;28;20058;-81
2024/02/14 02:28:29;;;;;;;9.93;6.30;;;;;;;9.10;81.00;99506.84;4972161;28;20061;-81
2024/02/14 02:30:55;;;;;;;10.80;6.30;;;;;;;9.10;81.34;99531.34;4972169;28;20400;-81
2024/02/14 02:33:22;;;;;;;10.23;6.28;;;;;;;9.09;81.52;99513.84;4972139;28;20086;-81
2024/02/14 02:35:49;;;;;;;6.63;5.93;;;;;;;9.10;81.30;99506.84;4972034;28;20047;-88
2024/02/14 02:38:17;;;;;;;8.93;6.85;;;;;;;9.09;81.44;99513.84;4970988;28;20090;-81
2024/02/14 02:40:44;;;;;;;10.10;6.93;;;;;;;9.09;81.51;99507.78;4971661;28;20142;-81
2024/02/14 02:43:10;;;;;;;10.90;6.50;;;;;;;9.09;81.81;99513.03;4972063;28;20492;-80
2024/02/14 02:45:37;;;;;;;9.40;6.75;;;;;;;9.09;81.83;99507.78;4972010;28;20141;-82
2024/02/14 02:48:05;;;;;;;7.72;6.90;;;;;;;9.08;82.00;99499.03;4971280;28;20152;-82
2024/02/14 02:50:31;;;;;;;7.00;6.22;;;;;;;9.09;82.17;99510.41;4970703;28;20058;-79
2024/02/14 02:52:58;;;;;;;11.70;6.97;;;;;;;9.10;82.32;99502.44;4971722;28;20051;-83
2024/02/14 02:55:26;;;;;;;8.95;7.00;;;;;;;9.12;82.28;99494.47;4973927;28;20109;-80
2024/02/14 02:57:53;;;;;;;7.68;6.45;;;;;;;9.11;82.17;99500.66;4973568;28;20084;-81
2024/02/14 03:00:21;;;;;;;8.05;6.65;;;;;;;9.11;82.42;99504.13;4975043;28;20058;-80
2024/02/14 03:02:48;;;;;;;10.57;8.60;;;;;;;9.10;82.65;99491.09;4974979;28;20153;-82
2024/02/14 03:05:18;;;;;;;9.52;7.40;;;;;;;9.10;82.85;99501.59;4975295;28;20066;-81
2024/02/14 03:07:47;;;;;;;12.93;8.27;;;;;;;9.10;83.17;99480.59;4973855;28;20085;-80
2024/02/14 03:10:17;;;;;;;9.00;8.13;;;;;;;9.11;83.16;99488.38;4975081;28;20059;-80
2024/02/14 03:12:50;;;;;;;13.00;9.50;;;;;;;9.09;83.32;99489.41;4975082;28;20098;-81
2024/02/14 03:15:18;;;;;;;11.32;9.70;;;;;;;9.10;83.27;99483.22;4975345;28;20101;-80
2024/02/14 03:17:45;;;;;;;13.25;9.15;;;;;;;9.12;83.26;99504.97;4973771;28;20415;-81
2024/02/14 03:20:13;;;;;;;13.38;9.45;;;;;;;9.12;83.17;99483.97;4975024;28;20054;-80
2024/02/14 03:22:47;;;;;;;10.55;8.95;;;;;;;9.12;83.52;99502.34;4974718;28;20055;-79
2024/02/14 03:25:19;;;;;;;10.20;9.18;;;;;;;9.08;84.39;99506.09;4973528;28;20062;-79
2024/02/14 03:27:49;;;;;;;11.05;9.25;;;;;;;9.14;83.57;99487.34;4973457;28;20046;-77
2024/02/14 03:30:16;;;;;;;11.00;9.70;;;;;;;9.15;83.68;99499.56;4974819;28;20488;-79
2024/02/14 03:32:44;;;;;;;13.88;10.55;;;;;;;9.17;83.89;99487.19;4973454;28;20396;-80
2024/02/14 03:35:13;;;;;;;12.20;9.60;;;;;;;9.18;83.91;99485.41;4974810;28;20062;-78
2024/02/14 03:37:47;;;;;;;11.98;10.65;;;;;;;9.15;84.32;99496.09;4973153;28;20047;-80
2024/02/14 03:40:14;;;;;;;12.80;9.90;;;;;;;9.18;84.32;99472.28;4974668;28;20133;-77
2024/02/14 03:42:41;;;;;;;13.02;9.65;;;;;;;9.19;84.11;99469.56;4974284;28;20503;-79
2024/02/14 03:45:08;;;;;;;11.55;10.35;;;;;;;9.19;84.51;99474.81;4974547;28;20058;-77
2024/02/14 03:47:39;;;;;;;14.77;10.55;;;;;;;9.21;84.59;99483.47;4974088;28;20408;-81
2024/02/14 03:50:07;;;;;;;12.48;10.60;;;;;;;9.24;84.70;99466.69;4974223;28;20054;-79
2024/02/14 03:52:33;;;;;;;13.68;11.63;;;;;;;9.24;84.87;99478.03;4974120;28;20513;-79
2024/02/14 03:55:01;;;;;;;14.75;11.93;;;;;;;9.25;85.14;99471.00;4974057;28;20051;-77
2024/02/14 03:57:30;;;;;;;13.90;11.38;;;;;;;9.26;85.16;99477.94;4974109;28;20053;-77
2024/02/14 04:00:01;;;;;;;15.77;11.35;;;;;;;9.29;85.35;99493.53;4974153;28;20500;-77
2024/02/14 04:02:28;;;;;;;14.32;11.35;;;;;;;9.30;85.27;99470.75;4973905;28;20109;-76
2024/02/14 04:04:55;;;;;;;14.00;12.48;;;;;;;9.31;85.44;99496.91;4974254;28;20050;-77
2024/02/14 04:07:22;;;;;;;17.02;11.43;;;;;;;9.33;85.44;99497.69;4972595;28;20046;-78
2024/02/14 04:09:48;;;;;;;15.02;11.85;;;;;;;9.33;85.37;99481.94;4974040;28;20054;-78
2024/02/14 04:12:15;;;;;;;13.50;12.05;;;;;;;9.34;85.45;99485.38;4973727;28;20141;-79
2024/02/14 04:14:41;;;;;;;13.35;11.73;;;;;;;9.36;85.56;99488.78;4973708;28;20137;-79
2024/02/14 04:17:08;;;;;;;16.92;11.70;;;;;;;9.37;85.65;99493.09;4973428;28;20055;-78
2024/02/14 04:19:35;;;;;;;15.73;12.05;;;;;;;9.38;85.96;99481.66;4972478;28;20556;-79
2024/02/14 04:22:02;;;;;;;18.60;12.50;;;;;;;9.37;85.85;99499.22;4973812;28;20522;-79
2024/02/14 04:24:28;;;;;;;14.50;11.38;;;;;;;9.39;86.03;99486.00;4973618;28;20058;-78
2024/02/14 04:26:56;;;;;;;14.63;13.05;;;;;;;9.41;86.17;99491.16;4973393;28;20046;-77
2024/02/14 04:29:23;;;;;;;14.57;11.65;;;;;;;9.43;86.04;99476.16;4973600;28;20547;-77
2024/02/14 04:31:52;;;;;;;17.75;11.90;;;;;;;9.45;86.08;99487.41;4973540;28;20105;-77
2024/02/14 04:34:19;;;;;;;17.50;13.30;;;;;;;9.45;86.40;99492.66;4973373;28;20102;-79
2024/02/14 04:36:46;;;;;;;17.13;12.75;;;;;;;9.46;86.39;99482.06;4973183;28;20047;-77
2024/02/14 04:39:13;;;;;;;15.52;12.80;;;;;;;9.47;86.53;99498.69;4973245;28;20051;-77
2024/02/14 04:41:39;;;;;;;14.55;12.85;;;;;;;9.51;86.50;99490.56;4973251;28;20062;-77
2024/02/14 04:44:22;;;;;;;18.02;12.60;;;;;;;9.51;86.57;99501.06;4973167;28;20206;-78
2024/02/14 04:46:49;;;;;;;14.68;11.50;;;;;;;9.55;86.36;99487.72;4971720;28;20090;-77
2024/02/14 04:49:15;;;;;;;13.95;11.32;;;;;;;9.56;86.94;99502.56;4973289;28;20110;-77
2024/02/14 04:51:42;;;;;;;17.50;12.80;;;;;;;9.56;86.69;99527.06;4973337;28;20061;-77
2024/02/14 04:54:09;;;;;;;15.20;12.88;;;;;;;9.56;86.94;99508.66;4973051;28;20891;-77
2024/02/14 04:56:36;;;;;;;13.10;11.75;;;;;;;9.58;86.79;99479.69;4971716;28;20059;-78
2024/02/14 04:59:04;;;;;;;17.25;12.85;;;;;;;9.60;87.12;99509.34;4972841;28;20058;-78
2024/02/14 05:01:31;;;;;;;15.05;12.02;;;;;;;9.59;87.07;99516.38;4972884;28;20090;-77
2024/02/14 05:03:58;;;;;;;13.88;12.43;;;;;;;9.60;87.07;99497.06;4972887;28;20042;-78
2024/02/14 05:06:25;;;;;;;13.38;11.45;;;;;;;9.63;86.98;99531.03;4971539;28;20110;-78
2024/02/14 05:08:51;;;;;;;14.18;11.68;;;;;;;9.65;87.02;99507.31;4971576;28;20134;-77
2024/02/14 05:11:18;;;;;;;12.07;10.88;;;;;;;9.67;87.08;99529.09;4972673;28;20408;-78
2024/02/14 05:13:46;;;;;;;13.50;11.20;;;;;;;9.69;87.23;99505.34;4971315;28;20430;-79
2024/02/14 05:16:13;;;;;;;12.40;11.10;;;;;;;9.70;87.37;99505.25;4972355;28;20469;-78
2024/02/14 05:18:39;;;;;;;11.77;10.50;;;;;;;9.72;87.32;99518.31;4972345;28;20134;-78
2024/02/14 05:21:07;;;;;;;11.80;10.60;;;;;;;9.74;87.43;99509.41;4971369;28;20503;-78
2024/02/14 05:23:35;;;;;;;14.50;10.40;;;;;;;9.75;87.65;99518.13;4972356;28;20466;-80
2024/02/14 05:26:02;;;;;;;11.77;10.52;;;;;;;9.77;87.68;99511.84;4972291;28;20046;-79
2024/02/14 05:28:30;;;;;;;14.73;10.38;;;;;;;9.78;87.67;99521.44;4972378;28;20060;-79
2024/02/14 05:31:00;;;;;;;11.60;10.40;;;;;;;9.80;87.70;99523.13;4972626;28;20058;-79
2024/02/14 05:33:26;;;;;;;18.13;10.73;;;;;;;9.82;87.74;99540.50;4971293;28;20076;-80
2024/02/14 05:35:53;;;;;;;16.10;11.25;;;;;;;9.85;87.93;99523.69;4971884;28;20054;-79
2024/02/14 05:38:20;;;;;;;14.88;10.32;;;;;;;9.87;87.76;99517.41;4970781;28;20492;-79
2024/02/14 05:40:48;;;;;;;11.15;10.05;;;;;;;9.88;87.74;99523.53;4972302;28;20062;-78
2024/02/14 05:43:15;;;;;;;10.43;9.35;;;;;;;9.90;87.84;99537.41;4972375;28;20149;-79
2024/02/14 05:45:42;;;;;;;9.75;8.75;;;;;;;9.91;88.15;99553.13;4972198;28;20239;-79
2024/02/14 05:48:08;;;;;;;8.82;7.93;;;;;;;9.94;88.09;99530.22;4971877;28;20051;-80
2024/02/14 05:50:36;;;;;;;9.05;8.15;;;;;;;9.96;88.02;99526.56;4970878;28;20081;-80
2024/02/14 05:53:03;;;;;;;9.30;8.40;;;;;;;9.98;88.03;99534.38;4971839;28;20141;-82
2024/02/14 05:55:29;;;;;;;8.52;7.40;;;;;;;9.98;88.25;99529.94;4971814;28;20055;-80
2024/02/14 05:57:58;;;;;;;8.95;8.05;;;;;;;10.01;88.19;99537.66;4971987;28;20043;-80
2024/02/14 06:00:25;;;;;;;9.30;7.97;;;;;;;10.03;88.35;99541.03;4972216;28;20094;-81
2024/02/14 06:02:55;;;;;;;7.80;7.00;;;;;;;10.04;88.41;99518.22;4971903;28;20503;-79
2024/02/14 06:05:22;;;;;;;8.52;7.22;;;;;;;10.06;88.46;99526.03;4972075;28;20499;-81
2024/02/14 06:07:50;;;;;;;7.68;6.90;;;;;;;10.10;88.69;99532.81;4971659;28;20221;-82
2024/02/14 06:10:18;;;;;;;7.93;7.22;;;;;;;10.12;88.78;99530.91;4970653;28;20071;-78
2024/02/14 06:12:46;;;;;;;7.65;6.85;;;;;;;10.14;88.80;99537.78;4970609;28;20423;-79
2024/02/14 06:15:12;;;;;;;8.50;7.63;;;;;;;10.14;89.07;99548.28;4971904;28;20070;-78
2024/02/14 06:17:39;;;;;;;7.80;7.10;;;;;;;10.18;88.87;99548.97;4971907;28;20472;-80
2024/02/14 06:20:07;;;;;;;7.70;6.97;;;;;;;10.20;88.95;99539.19;4972177;28;20392;-77
2024/02/14 06:22:34;;;;;;;11.70;8.00;;;;;;;10.22;88.84;99542.59;4970342;28;20058;-81
2024/02/14 06:25:13;;;;;;;8.88;7.63;;;;;;;10.26;89.14;99551.16;4972026;28;20079;-80
2024/02/14 06:27:39;;;;;;;6.93;6.22;;;;;;;10.28;89.23;99552.75;4971492;28;20062;-79
2024/02/14 06:30:07;;;;;;;7.53;6.65;;;;;;;10.29;89.33;99564.97;4973475;28;20051;-78
2024/02/14 06:32:35;;;;;;;7.63;6.55;;;;;;;10.30;89.62;99576.34;4974359;28;20093;-81
2024/02/14 06:35:02;;;;;;;7.30;6.53;;;;;;;10.33;89.48;99559.53;4974802;28;20054;-79
2024/02/14 06:37:30;;;;;;;7.60;6.18;;;;;;;10.38;89.43;99557.47;4974612;28;20058;-79
2024/02/14 06:40:08;;;;;;;6.57;5.80;;;;;;;10.39;89.60;99567.06;4974617;28;20089;-81
2024/02/14 06:42:35;;;;;;;8.30;5.95;;;;;;;10.42;90.09;99566.88;4974594;28;20797;-79
2024/02/14 06:45:01;;;;;;;6.68;5.72;;;;;;;10.46;89.79;99564.94;4974444;28;20266;-81
2024/02/14 06:47:29;;;;;;;7.90;6.18;;;;;;;10.49;89.91;99560.34;4975429;28;20082;-79
2024/02/14 06:49:56;;;;;;;12.48;6.72;;;;;;;10.52;89.64;99567.19;4974440;28;20085;-80
2024/02/14 06:52:24;;;;;;;8.88;6.50;;;;;;;10.54;89.93;99570.56;4975349;28;20054;-79
2024/02/14 06:54:50;;;;;;;9.18;6.80;;;;;;;10.57;89.94;99580.94;4975603;28;20142;-79
2024/02/14 06:57:17;;;;;;;11.15;7.70;;;;;;;10.60;89.74;99575.50;4974985;28;20054;-80
2024/02/14 06:59:44;;;;;;;11.45;7.13;;;;;;;10.62;89.76;99585.94;4975381;28;20054;-79
2024/02/14 07:02:11;;;;;;;9.02;7.22;;;;;;;10.65;89.61;99583.13;4975155;28;20057;-82
2024/02/14 07:04:39;;;;;;;9.63;7.45;;;;;;;10.68;89.76;99591.66;4975162;28;20065;-80
2024/02/14 07:07:07;;;;;;;9.23;7.72;;;;;;;10.71;89.70;99592.41;4973738;28;20053;-82
2024/02/14 07:09:36;;;;;;;12.60;8.05;;;;;;;10.72;89.59;99588.84;4975220;28;20066;-80
2024/02/14 07:12:03;;;;;;;8.85;7.20;;;;;;;10.76;89.62;99591.19;4975006;28;20078;-78
2024/02/14 07:14:30;;;;;;;10.93;7.78;;;;;;;10.77;89.56;99592.88;4975015;28;20095;-80
2024/02/14 07:16:56;;;;;;;10.77;7.70;;;;;;;10.80;89.55;99600.59;4974591;28;20627;-79
2024/02/14 18:27:34;;;;;;;11.75;10.07;;;;;;;13.00;91.52;99781.19;5277916;22;20051;-74
2024/02/14 18:30:00;;;;;;;11.85;10.68;;;;;;;13.00;91.60;99786.47;5055025;28;20053;-76
2024/02/14 18:32:27;;;;;;;14.45;12.10;;;;;;;13.00;91.81;99789.09;5054794;28;20081;-75
2024/02/14 18:34:54;;;;;;;12.40;11.20;;;;;;;13.02;91.77;99789.88;5054710;28;20052;-73
2024/02/14 18:37:21;;;;;;;12.70;11.38;;;;;;;13.03;91.88;99788.91;5054499;28;20061;-75
2024/02/14 18:39:47;;;;;;;12.05;10.82;;;;;;;13.06;91.73;99798.44;5054033;28;20041;-75
2024/02/14 18:42:14;;;;;;;12.63;11.30;;;;;;;13.07;91.86;99785.13;5318413;22;20020;-82
2024/02/14 18:44:40;;;;;;;13.73;11.57;;;;;;;13.10;91.65;99781.41;5053577;28;20056;-82
2024/02/14 18:47:07;;;;;;;12.70;11.35;;;;;;;13.13;91.40;99802.38;5053956;28;20125;-82
2024/02/14 18:49:34;;;;;;;13.02;11.68;;;;;;;13.12;91.54;99784.81;5054107;28;20099;-81
2024/02/14 18:52:01;;;;;;;12.48;11.27;;;;;;;13.15;91.56;99785.44;5054175;28;20494;-82
2024/02/14 18:54:29;;;;;;;12.82;11.52;;;;;;;13.16;91.63;99797.72;5054131;28;20056;-82
2024/02/14 18:56:56;;;;;;;12.23;10.93;;;;;;;13.18;91.58;99791.47;5053967;28;20057;-81
2024/02/14 18:59:22;;;;;;;12.35;10.98;;;;;;;13.19;91.46;99787.91;5054037;28;20556;-81
2024/02/14 19:01:49;;;;;;;11.10;9.98;;;;;;;13.19;91.44;99799.28;5054125;28;20049;-82
2024/02/14 19:04:15;;;;;;;12.18;10.90;;;;;;;13.21;91.46;99791.25;5036177;28;20477;-81
2024/02/14 19:06:42;;;;;;;10.90;9.75;;;;;;;13.22;91.48;99796.44;5053893;28;20045;-82
2024/02/14 19:09:11;;;;;;;10.80;9.70;;;;;;;13.24;91.33;99775.22;5054207;28;20056;-80
2024/02/14 19:11:39;;;;;;;10.05;9.05;;;;;;;13.25;91.23;99787.47;5036250;28;20559;-82
2024/02/14 19:14:06;;;;;;;9.50;8.60;;;;;;;13.26;91.23;99775.94;5036454;28;20144;-81
2024/02/14 19:16:32;;;;;;;9.30;8.23;;;;;;;13.27;91.16;99782.94;5053814;28;20409;-81
2024/02/14 19:18:59;;;;;;;9.80;8.80;;;;;;;13.27;91.21;99796.97;5053778;28;20155;-81
2024/02/14 19:21:26;;;;;;;10.57;9.57;;;;;;;13.28;91.08;99788.09;5053859;28;20052;-82
2024/02/14 19:23:52;;;;;;;11.10;10.00;;;;;;;13.29;91.18;99789.81;5053461;28;20084;-82
2024/02/14 19:26:20;;;;;;;10.82;9.73;;;;;;;13.29;91.24;99787.16;5045477;28;20045;-81
2024/02/14 19:28:47;;;;;;;11.27;10.10;;;;;;;13.31;91.34;99792.34;5053681;28;20048;-81
2024/02/14 19:31:14;;;;;;;11.18;10.07;;;;;;;13.32;91.22;99787.91;5035825;28;20144;-81
2024/02/14 19:33:42;;;;;;;12.48;11.25;;;;;;;13.32;91.21;99791.41;5053510;28;20141;-82
2024/02/14 19:36:09;;;;;;;11.60;10.40;;;;;;;13.33;91.21;99790.44;5052602;28;20060;-81
2024/02/14 19:38:36;;;;;;;12.57;11.30;;;;;;;13.33;91.26;99781.66;5035986;28;20055;-82
2024/02/14 19:41:03;;;;;;;11.93;10.73;;;;;;;13.34;91.42;99784.19;5053425;28;20045;-81
2024/02/14 19:43:30;;;;;;;11.82;10.63;;;;;;;13.37;91.15;99791.06;5034788;28;20645;-82
2024/02/14 19:46:05;;;;;;;12.25;10.98;;;;;;;13.37;91.06;99788.41;5051777;28;20045;-80
2024/02/14 19:48:34;;;;;;;10.88;9.77;;;;;;;13.38;91.24;99792.78;5051580;28;20122;-81
2024/02/14 19:51:02;;;;;;;12.18;10.88;;;;;;;13.37;91.29;99794.56;5051354;28;20504;-82
2024/02/14 19:53:29;;;;;;;12.18;10.95;;;;;;;13.37;91.28;99791.06;5051465;28;20060;-82
2024/02/14 19:55:58;;;;;;;12.68;11.43;;;;;;;13.37;91.28;99789.28;5051575;28;20052;-82
2024/02/14 19:58:25;;;;;;;13.70;12.32;;;;;;;13.38;91.48;99801.53;5051551;28;20106;-82
2024/02/14 20:00:52;;;;;;;14.70;12.35;;;;;;;13.39;91.45;99790.00;5051517;28;20055;-83
2024/02/14 20:03:19;;;;;;;14.38;12.82;;;;;;;13.39;91.60;99790.00;5051326;28;20087;-82
2024/02/14 20:05:47;;;;;;;14.90;13.38;;;;;;;13.37;91.58;99796.34;5050706;28;20049;-81
2024/02/14 20:08:14;;;;;;;15.27;13.45;;;;;;;13.40;91.79;99804.09;5033515;28;20045;-82
2024/02/14 20:10:41;;;;;;;14.90;13.30;;;;;;;13.39;91.64;99790.00;5051472;28;20107;-81
2024/02/14 20:13:08;;;;;;;15.10;13.45;;;;;;;13.40;91.68;99802.31;5051107;28;20056;-82
2024/02/14 20:15:34;;;;;;;17.25;12.90;;;;;;;13.42;91.72;99804.84;5051465;28;20147;-82
2024/02/14 20:18:01;;;;;;;14.77;13.00;;;;;;;13.43;91.78;99807.34;5050941;28;20076;-82
2024/02/14 20:20:28;;;;;;;16.63;14.00;;;;;;;13.45;91.77;99796.69;5051238;28;20048;-82
2024/02/14 20:22:54;;;;;;;15.63;14.02;;;;;;;13.47;91.64;99801.88;5051106;28;20045;-81
2024/02/14 20:25:21;;;;;;;16.35;13.93;;;;;;;13.47;91.54;99800.06;5051167;28;20049;-82
2024/02/14 20:27:49;;;;;;;15.38;13.80;;;;;;;13.48;91.41;99801.78;5051024;28;20041;-83
2024/02/14 20:30:16;;;;;;;17.73;15.45;;;;;;;13.48;91.64;99808.88;5050808;28;20668;-84
2024/02/14 20:32:43;;;;;;;18.73;16.00;;;;;;;13.48;91.66;99808.88;5050722;28;20044;-83
2024/02/14 20:35:14;;;;;;;16.83;14.98;;;;;;;13.48;91.60;99811.50;5051121;28;20049;-83
2024/02/14 20:37:42;;;;;;;18.20;16.17;;;;;;;13.51;91.72;99808.66;5050795;28;20051;-82
2024/02/14 20:40:13;;;;;;;17.92;15.80;;;;;;;13.49;91.77;99807.94;5050974;28;20049;-83
2024/02/14 20:42:40;;;;;;;19.63;17.55;;;;;;;13.48;91.77;99816.81;4990133;28;1750318;-84
2024/02/14 20:45:08;;;;;;;19.20;16.50;;;;;;;13.48;91.81;99809.72;5033276;28;20080;-84
2024/02/14 20:47:35;;;;;;;18.98;16.90;;;;;;;13.50;92.00;99806.97;5050783;28;20045;-85
2024/02/14 20:50:03;;;;;;;24.88;18.08;;;;;;;13.48;91.60;99807.09;5033377;28;20130;-84
2024/02/14 20:52:29;;;;;;;20.58;16.95;;;;;;;13.51;91.69;99806.88;5033992;28;20131;-85
2024/02/14 20:54:56;;;;;;;19.95;17.70;;;;;;;13.50;91.91;99812.28;5051459;28;20082;-84
2024/02/14 20:57:23;;;;;;;18.90;16.92;;;;;;;13.53;91.74;99814.72;5051222;28;20136;-85
2024/02/14 20:59:50;;;;;;;20.77;17.02;;;;;;;13.54;91.78;99816.41;5051629;28;20171;-84
2024/02/14 21:02:17;;;;;;;21.70;18.25;;;;;;;13.53;91.65;99810.25;5051450;28;20140;-84
2024/02/14 21:04:44;;;;;;;23.38;18.35;;;;;;;13.55;91.70;99811.00;5051428;28;20052;-84
2024/02/14 21:07:14;;;;;;;20.58;18.40;;;;;;;13.56;91.74;99817.13;5051024;28;20056;-83
2024/02/14 21:09:45;;;;;;;22.60;17.75;;;;;;;13.55;91.11;99820.72;5051327;28;20086;-85
2024/02/14 21:12:11;;;;;;;21.33;17.95;;;;;;;13.57;91.47;99837.31;5033490;28;20110;-83
2024/02/14 21:14:38;;;;;;;20.05;17.60;;;;;;;13.55;91.89;99811.00;5033533;28;20057;-82
2024/02/14 21:17:05;;;;;;;25.75;17.73;;;;;;;13.58;91.74;99815.25;5050914;28;20127;-86
2024/02/14 21:19:32;;;;;;;21.10;17.27;;;;;;;13.60;91.75;99818.63;5051138;28;20119;-85
2024/02/14 21:21:59;;;;;;;23.25;17.30;;;;;;;13.60;91.54;99818.63;5033534;28;20057;-85
2024/02/14 21:24:25;;;;;;;19.48;16.75;;;;;;;13.60;91.65;99829.19;5050934;28;20072;-85
2024/02/14 21:26:52;;;;;;;18.92;16.92;;;;;;;13.62;91.75;99826.44;5033080;28;20052;-87
2024/02/14 21:29:19;;;;;;;19.23;15.48;;;;;;;13.63;91.63;99829.00;5051239;28;20051;-87
2024/02/14 21:31:46;;;;;;;22.15;16.95;;;;;;;13.64;91.65;99828.03;5051053;28;20063;-87
2024/02/14 21:34:13;;;;;;;27.85;17.15;;;;;;;13.65;91.54;99835.00;5050977;28;20053;-86
2024/02/14 21:36:40;;;;;;;21.30;16.77;;;;;;;13.64;91.30;99835.97;5050633;28;20049;-86
2024/02/14 21:39:08;;;;;;;17.75;15.90;;;;;;;13.66;91.48;99823.50;5050720;28;20110;-87
2024/02/14 21:41:35;;;;;;;19.35;16.67;;;;;;;13.67;91.38;99814.59;5050790;28;20128;-86
2024/02/14 21:44:02;;;;;;;19.33;15.60;;;;;;;13.68;91.20;99832.16;5050911;28;20052;-87
2024/02/14 21:46:29;;;;;;;18.65;15.48;;;;;;;13.68;91.37;99824.22;5050883;28;20144;-87
2024/02/14 21:48:57;;;;;;;20.08;15.25;;;;;;;13.70;91.11;99833.84;5050879;28;20106;-85
2024/02/14 21:51:28;;;;;;;21.02;15.82;;;;;;;13.71;91.18;99825.81;5032922;28;20053;-86
2024/02/14 21:53:55;;;;;;;19.05;15.48;;;;;;;13.71;91.11;99830.28;5032810;28;20049;-87
2024/02/14 21:56:21;;;;;;;17.02;15.23;;;;;;;13.71;91.22;99831.09;5050515;28;20053;-86
2024/02/14 21:58:48;;;;;;;21.67;15.63;;;;;;;13.73;91.14;99823.06;5033103;28;20052;-85
2024/02/14 22:01:14;;;;;;;18.15;15.27;;;;;;;13.74;91.02;99822.09;5050263;28;20103;-87
2024/02/14 22:03:41;;;;;;;16.33;14.63;;;;;;;13.75;91.15;99834.41;5033102;28;20053;-86
2024/02/14 22:06:08;;;;;;;17.13;15.43;;;;;;;13.76;91.09;99825.50;5050117;28;20143;-87
2024/02/14 22:08:35;;;;;;;19.13;14.98;;;;;;;13.77;90.84;99822.75;5050594;28;20139;-86
2024/02/14 22:11:02;;;;;;;17.33;14.15;;;;;;;13.77;90.80;99832.47;5050291;28;20048;-85
2024/02/14 22:13:30;;;;;;;16.35;14.60;;;;;;;13.78;90.79;99827.09;5050839;28;20053;-87
2024/02/14 22:15:57;;;;;;;17.00;14.63;;;;;;;13.79;90.92;99822.63;5050017;28;20053;-86
2024/02/14 22:18:25;;;;;;;16.45;13.70;;;;;;;13.79;90.88;99820.81;5050338;28;20577;-85
2024/02/14 22:20:52;;;;;;;17.52;14.75;;;;;;;13.79;90.87;99823.47;5032576;28;20144;-86
2024/02/14 22:23:19;;;;;;;16.30;14.65;;;;;;;13.79;90.73;99809.38;5032586;28;20049;-86
2024/02/14 22:25:46;;;;;;;16.00;14.13;;;;;;;13.80;90.79;99819.03;5050425;28;20053;-86
2024/02/14 22:28:13;;;;;;;16.85;13.80;;;;;;;13.81;90.91;99810.16;5050199;28;20057;-86
2024/02/14 22:30:41;;;;;;;16.40;14.50;;;;;;;13.82;90.60;99811.84;5050401;28;20110;-86
2024/02/14 22:33:09;;;;;;;19.08;13.75;;;;;;;13.84;90.64;99806.44;5050321;28;20083;-86
2024/02/14 22:35:36;;;;;;;16.73;14.15;;;;;;;13.84;90.64;99809.94;5050453;28;20057;-86
2024/02/14 22:38:08;;;;;;;17.35;14.07;;;;;;;13.82;90.33;99809.19;5050119;28;20045;-86
2024/02/14 22:40:36;;;;;;;17.52;14.93;;;;;;;13.85;90.46;99816.06;5050584;28;20387;-86